createdAt,value
2022-10-09T00:01:16.320Z,101837.81
2022-10-09T00:03:43.997Z,101878.75
2022-10-09T00:06:11.564Z,101874.44
2022-10-09T00:08:41.426Z,101869.22
2022-10-09T00:11:08.621Z,101868.31
2022-10-09T00:13:35.479Z,101874.41
2022-10-09T00:16:02.958Z,101877.06
2022-10-09T00:18:29.187Z,101869.25
2022-10-09T00:20:55.484Z,101868.38
2022-10-09T00:23:21.790Z,101865.75
2022-10-09T00:25:52.763Z,101865.78
2022-10-09T00:28:21.104Z,101767.34
2022-10-09T00:30:47.623Z,101870.13
2022-10-09T00:33:14.259Z,101865.75
2022-10-09T00:35:40.895Z,101874.50
2022-10-09T00:38:07.328Z,101878.03
2022-10-09T00:40:34.449Z,101878.91
2022-10-09T00:43:00.995Z,101877.13
2022-10-09T00:45:27.551Z,101875.38
2022-10-09T00:48:04.980Z,101871.91
2022-10-09T00:50:38.292Z,101873.66
2022-10-09T00:53:04.564Z,101877.19
2022-10-09T00:55:32.226Z,101879.78
2022-10-09T00:57:59.649Z,101876.28
2022-10-09T01:00:26.800Z,101879.78
2022-10-09T01:02:54.108Z,101876.31
2022-10-09T01:05:25.061Z,101878.06
2022-10-09T01:07:58.321Z,101813.56
2022-10-09T01:10:32.835Z,101878.94
2022-10-09T01:13:02.255Z,101868.47
2022-10-09T01:15:33.876Z,101861.50
2022-10-09T01:18:13.685Z,101867.59
2022-10-09T01:20:51.754Z,101872.81
2022-10-09T01:23:36.928Z,101867.59
2022-10-09T01:26:06.230Z,101865.00
2022-10-09T01:28:33.373Z,101867.59
2022-10-09T01:31:01.749Z,101860.63
2022-10-09T01:33:29.434Z,101864.13
2022-10-09T01:35:55.944Z,101859.75
2022-10-09T01:38:24.123Z,101855.38
2022-10-09T01:40:52.268Z,101862.38
2022-10-09T01:43:18.783Z,101855.41
2022-10-09T01:45:46.015Z,101851.91
2022-10-09T01:48:16.428Z,101851.91
2022-10-09T01:50:48.094Z,101845.81
2022-10-09T01:53:18.149Z,101855.38
2022-10-09T01:55:58.012Z,101854.50
2022-10-09T01:58:36.110Z,101844.97
2022-10-09T02:01:15.453Z,101844.94
2022-10-09T02:03:43.121Z,101846.66
2022-10-09T02:06:11.807Z,101837.97
2022-10-09T02:08:39.222Z,101837.09
2022-10-09T02:11:05.865Z,101822.25
2022-10-09T02:13:33.480Z,101837.97
2022-10-09T02:16:18.847Z,101834.44
2022-10-09T02:18:46.418Z,101831.00
2022-10-09T02:21:18.206Z,101831.00
2022-10-09T02:23:46.109Z,101829.22
2022-10-09T02:26:13.058Z,101830.94
2022-10-09T02:28:45.134Z,101837.06
2022-10-09T02:31:19.821Z,101825.78
2022-10-09T02:33:46.158Z,101830.94
2022-10-09T02:36:13.206Z,101823.09
2022-10-09T02:38:39.451Z,101827.47
2022-10-09T02:41:05.685Z,101826.59
2022-10-09T02:43:31.974Z,101828.31
2022-10-09T02:45:58.367Z,101825.72
2022-10-09T02:48:24.742Z,101824.81
2022-10-09T02:50:51.179Z,101830.94
2022-10-09T02:53:17.403Z,101824.84
2022-10-09T02:55:43.690Z,101821.34
2022-10-09T02:58:10.022Z,101820.50
2022-10-09T03:00:37.608Z,101815.25
2022-10-09T03:03:03.964Z,101813.47
2022-10-09T03:05:30.298Z,101813.47
2022-10-09T03:07:56.498Z,101826.50
2022-10-09T03:10:22.798Z,101818.72
2022-10-09T03:12:49.365Z,101816.97
2022-10-09T03:15:16.082Z,101814.31
2022-10-09T03:17:42.333Z,101820.41
2022-10-09T03:20:08.915Z,101811.75
2022-10-09T03:22:35.142Z,101813.50
2022-10-09T03:25:01.442Z,101815.19
2022-10-09T03:27:27.686Z,101813.47
2022-10-09T03:29:53.921Z,101817.81
2022-10-09T03:32:20.183Z,101816.94
2022-10-09T03:34:46.489Z,101803.00
2022-10-09T03:37:12.752Z,101809.06
2022-10-09T03:39:39.012Z,101814.28
2022-10-09T03:42:05.325Z,101804.72
2022-10-09T03:44:31.650Z,101806.44
2022-10-09T03:46:57.983Z,101797.75
2022-10-09T03:49:24.413Z,101793.41
2022-10-09T03:51:50.748Z,101796.03
2022-10-09T03:54:16.989Z,101793.44
2022-10-09T03:56:43.272Z,101794.28
2022-10-09T03:59:09.940Z,101802.06
2022-10-09T04:01:36.280Z,101800.34
2022-10-09T04:04:02.695Z,101796.91
2022-10-09T04:06:28.985Z,101806.47
2022-10-09T04:08:56.655Z,101802.94
2022-10-09T04:11:23.401Z,101772.41
2022-10-09T04:13:49.677Z,101802.03
2022-10-09T04:16:16.503Z,101796.81
2022-10-09T04:18:44.232Z,101795.91
2022-10-09T04:21:10.602Z,101790.63
2022-10-09T04:23:36.878Z,101793.22
2022-10-09T04:26:03.167Z,101783.72
2022-10-09T04:28:30.696Z,101778.47
2022-10-09T04:30:57.646Z,101782.78
2022-10-09T04:33:24.454Z,101778.44
2022-10-09T04:35:52.052Z,101779.31
2022-10-09T04:38:19.208Z,101781.94
2022-10-09T04:40:54.754Z,101779.34
2022-10-09T04:43:20.967Z,101782.81
2022-10-09T04:45:47.287Z,101783.63
2022-10-09T04:48:13.562Z,101778.41
2022-10-09T04:50:39.937Z,101783.59
2022-10-09T04:53:06.161Z,101776.59
2022-10-09T04:55:32.429Z,101766.19
2022-10-09T04:57:58.666Z,101766.25
2022-10-09T05:00:24.922Z,101771.44
2022-10-09T05:02:51.565Z,101761.88
2022-10-09T05:05:18.002Z,101765.31
2022-10-09T05:07:44.224Z,101767.09
2022-10-09T05:10:10.467Z,101767.06
2022-10-09T05:12:36.758Z,101769.66
2022-10-09T05:15:03.113Z,101767.00
2022-10-09T05:17:29.434Z,101760.88
2022-10-09T05:19:55.702Z,101764.41
2022-10-09T05:22:21.969Z,101769.66
2022-10-09T05:24:48.209Z,101762.69
2022-10-09T05:27:14.429Z,101761.75
2022-10-09T05:29:40.682Z,101765.22
2022-10-09T05:32:07.061Z,101768.78
2022-10-09T05:34:33.821Z,101773.13
2022-10-09T05:37:00.039Z,101762.72
2022-10-09T05:39:26.265Z,101766.22
2022-10-09T05:41:52.494Z,101762.78
2022-10-09T05:44:18.769Z,101767.97
2022-10-09T05:46:44.994Z,101768.88
2022-10-09T05:49:12.158Z,101762.00
2022-10-09T05:51:39.629Z,101765.53
2022-10-09T05:54:06.196Z,101759.44
2022-10-09T05:56:33.783Z,101764.66
2022-10-09T05:59:01.251Z,101772.50
2022-10-09T06:01:28.726Z,101762.94
2022-10-09T06:03:56.843Z,101764.66
2022-10-09T06:06:24.200Z,101768.16
2022-10-09T06:08:50.458Z,101765.53
2022-10-09T06:11:19.834Z,101758.56
2022-10-09T06:13:46.502Z,101762.97
2022-10-09T06:16:13.986Z,101757.75
2022-10-09T06:18:43.519Z,101761.19
2022-10-09T06:21:11.843Z,101765.56
2022-10-09T06:23:38.119Z,101762.94
2022-10-09T06:26:06.008Z,101771.66
2022-10-09T06:28:32.885Z,101776.91
2022-10-09T06:31:03.280Z,101768.16
2022-10-09T06:33:30.861Z,101769.97
2022-10-09T06:36:09.481Z,101776.94
2022-10-09T06:38:36.988Z,101771.69
2022-10-09T06:41:04.255Z,101774.31
2022-10-09T06:43:31.382Z,101760.38
2022-10-09T06:46:00.345Z,101750.84
2022-10-09T06:48:28.202Z,101759.56
2022-10-09T06:50:54.431Z,101768.22
2022-10-09T06:53:20.662Z,101772.59
2022-10-09T06:55:53.554Z,101769.97
2022-10-09T06:58:20.312Z,101775.19
2022-10-09T07:00:46.690Z,101766.50
2022-10-09T07:03:13.461Z,101768.28
2022-10-09T07:05:40.100Z,101766.53
2022-10-09T07:08:06.528Z,101768.25
2022-10-09T07:10:32.950Z,101765.63
2022-10-09T07:12:59.154Z,101763.03
2022-10-09T07:15:25.519Z,101764.75
2022-10-09T07:17:51.774Z,101756.03
2022-10-09T07:20:19.085Z,101758.63
2022-10-09T07:22:45.298Z,101770.84
2022-10-09T07:25:12.380Z,101769.91
2022-10-09T07:27:38.594Z,101770.78
2022-10-09T07:30:05.095Z,101766.41
2022-10-09T07:32:31.399Z,101767.28
2022-10-09T07:34:57.830Z,101769.88
2022-10-09T07:37:24.089Z,101769.84
2022-10-09T07:39:50.337Z,101759.38
2022-10-09T07:42:26.681Z,101774.16
2022-10-09T07:44:52.918Z,101769.78
2022-10-09T07:47:19.153Z,101760.16
2022-10-09T07:49:45.481Z,101759.28
2022-10-09T07:52:13.078Z,101769.72
2022-10-09T07:54:39.698Z,101763.56
2022-10-09T07:57:07.075Z,101755.69
2022-10-09T07:59:33.363Z,101764.38
2022-10-09T08:01:59.638Z,101755.59
2022-10-09T08:04:26.212Z,101752.97
2022-10-09T08:06:52.461Z,101753.81
2022-10-09T08:09:18.837Z,101759.06
2022-10-09T08:11:45.158Z,101750.28
2022-10-09T08:14:16.584Z,101742.38
2022-10-09T08:16:45.167Z,101744.97
2022-10-09T08:19:11.438Z,101739.72
2022-10-09T08:21:38.221Z,101744.91
2022-10-09T08:24:04.664Z,101747.50
2022-10-09T08:26:36.623Z,101744.78
2022-10-09T08:29:04.083Z,101737.72
2022-10-09T08:31:31.892Z,101735.03
2022-10-09T08:33:59.440Z,101737.63
2022-10-09T08:36:25.849Z,101739.28
2022-10-09T08:38:52.510Z,101737.50
2022-10-09T08:41:37.730Z,101731.31
2022-10-09T08:44:22.024Z,101734.63
2022-10-09T08:46:59.335Z,101743.31
2022-10-09T08:49:28.587Z,101735.34
2022-10-09T08:51:56.902Z,101730.88
2022-10-09T08:54:26.221Z,101725.47
2022-10-09T08:56:52.852Z,101726.25
2022-10-09T08:59:19.366Z,101714.81
2022-10-09T09:01:49.630Z,101720.72
2022-10-09T09:04:15.958Z,101711.81
2022-10-09T09:06:45.192Z,101716.97
2022-10-09T09:09:18.435Z,101703.59
2022-10-09T09:11:56.307Z,101699.06
2022-10-09T09:14:46.953Z,101693.59
2022-10-09T09:17:15.895Z,101693.44
2022-10-09T09:19:45.218Z,101692.41
2022-10-09T09:22:13.378Z,101687.72
2022-10-09T09:24:53.050Z,101684.09
2022-10-09T09:27:20.594Z,101682.06
2022-10-09T09:29:50.226Z,101673.88
2022-10-09T09:32:20.310Z,101675.50
2022-10-09T09:34:47.117Z,101671.81
2022-10-09T09:37:13.516Z,101671.41
2022-10-09T09:40:34.880Z,101664.97
2022-10-09T09:42:27.276Z,101670.13
2022-10-09T09:45:02.955Z,101669.94
2022-10-09T09:47:47.768Z,101667.94
2022-10-09T09:50:28.810Z,101654.56
2022-10-09T09:53:28.951Z,101649.09
2022-10-09T09:55:56.264Z,101647.00
2022-10-09T09:58:22.920Z,101642.28
2022-10-09T10:01:00.921Z,101638.59
2022-10-09T10:03:27.686Z,101633.72
2022-10-09T10:05:54.256Z,101625.63
2022-10-09T10:08:23.007Z,101625.22
2022-10-09T10:10:50.654Z,101621.41
2022-10-09T10:13:46.046Z,101623.56
2022-10-09T10:16:20.354Z,101612.50
2022-10-09T10:18:46.641Z,101607.19
2022-10-09T10:21:14.319Z,101605.19
2022-10-09T10:23:49.843Z,101600.84
2022-10-09T10:26:22.093Z,101597.84
2022-10-09T10:28:51.726Z,101577.34
2022-10-09T10:31:23.289Z,101591.84
2022-10-09T10:33:52.001Z,101591.28
2022-10-09T10:36:18.573Z,101577.16
2022-10-09T10:38:49.956Z,101576.69
2022-10-09T10:41:17.643Z,101572.44
2022-10-09T10:43:45.876Z,101573.00
2022-10-09T10:46:15.707Z,101571.13
2022-10-09T10:48:43.440Z,101567.28
2022-10-09T10:51:29.722Z,101566.25
2022-10-09T10:53:58.776Z,101565.00
2022-10-09T10:56:28.562Z,101563.94
2022-10-09T10:59:05.592Z,101554.16
2022-10-09T11:01:39.089Z,101545.41
2022-10-09T11:04:41.154Z,101547.50
2022-10-09T11:07:26.364Z,101547.75
2022-10-09T11:09:56.100Z,101541.44
2022-10-09T11:12:47.744Z,101541.47
2022-10-09T11:15:37.439Z,101532.84
2022-10-09T11:18:19.517Z,101529.94
2022-10-09T11:21:15.936Z,101521.59
2022-10-09T11:24:14.831Z,101514.44
2022-10-09T11:26:41.063Z,101515.38
2022-10-09T11:29:18.298Z,101516.97
2022-10-09T11:31:55.372Z,101506.34
2022-10-09T11:34:26.775Z,101502.06
2022-10-09T11:36:53.495Z,101498.72
2022-10-09T11:39:22.259Z,101494.66
2022-10-09T11:41:50.077Z,101492.69
2022-10-09T11:44:35.109Z,101499.19
2022-10-09T11:47:10.667Z,101489.06
2022-10-09T11:49:55.720Z,101490.34
2022-10-09T11:52:35.856Z,101478.00
2022-10-09T11:55:16.193Z,101473.81
2022-10-09T11:57:42.468Z,101470.69
2022-10-09T12:00:09.390Z,101467.69
2022-10-09T12:02:36.750Z,101458.69
2022-10-09T12:05:15.641Z,101453.53
2022-10-09T12:07:42.017Z,101446.34
2022-10-09T12:10:08.472Z,101435.66
2022-10-09T12:12:37.717Z,101437.78
2022-10-09T12:15:23.069Z,101429.13
2022-10-09T12:17:49.995Z,101427.56
2022-10-09T12:20:18.305Z,101419.16
2022-10-09T12:23:01.437Z,101413.03
2022-10-09T12:25:40.524Z,101410.50
2022-10-09T12:28:14.143Z,101400.50
2022-10-09T12:30:47.447Z,101391.75
2022-10-09T12:33:32.753Z,101396.75
2022-10-09T12:36:05.098Z,101395.19
2022-10-09T12:38:31.857Z,101388.13
2022-10-09T12:41:01.086Z,101374.22
2022-10-09T12:43:27.831Z,101381.03
2022-10-09T12:45:54.525Z,101381.66
2022-10-09T12:48:22.086Z,101365.66
2022-10-09T12:50:48.562Z,101369.44
2022-10-09T12:53:16.613Z,101360.84
2022-10-09T12:55:48.389Z,101350.00
2022-10-09T12:58:29.334Z,101340.00
2022-10-09T13:00:58.126Z,101342.84
2022-10-09T13:03:51.826Z,101335.69
2022-10-09T13:06:19.724Z,101334.78
2022-10-09T13:08:51.363Z,101338.88
2022-10-09T13:11:20.719Z,101325.44
2022-10-09T13:13:51.168Z,101323.16
2022-10-09T13:16:17.472Z,101321.41
2022-10-09T13:18:43.994Z,101324.28
2022-10-09T13:21:17.498Z,101312.31
2022-10-09T13:23:43.894Z,101319.25
2022-10-09T13:26:15.815Z,101302.00
2022-10-09T13:28:42.102Z,101307.00
2022-10-09T13:31:08.651Z,101304.56
2022-10-09T13:33:35.280Z,101297.13
2022-10-09T13:36:01.589Z,101293.28
2022-10-09T13:38:30.285Z,101292.75
2022-10-09T13:41:00.348Z,101291.91
2022-10-09T13:43:27.377Z,101290.34
2022-10-09T13:45:53.719Z,101282.28
2022-10-09T13:48:20.134Z,101276.09
2022-10-09T13:50:46.392Z,101277.78
2022-10-09T13:53:12.711Z,101268.84
2022-10-09T13:55:39.050Z,101260.06
2022-10-09T13:58:05.367Z,101260.94
2022-10-09T14:00:31.677Z,101259.59
2022-10-09T14:02:58.154Z,101256.63
2022-10-09T14:05:26.493Z,101246.88
2022-10-09T14:07:53.065Z,101247.03
2022-10-09T14:10:23.633Z,101241.00
2022-10-09T14:12:51.431Z,101243.06
2022-10-09T14:15:18.446Z,101235.31
2022-10-09T14:20:19.935Z,101224.00
2022-10-09T14:22:46.507Z,101138.38
2022-10-09T14:25:13.059Z,101194.00
2022-10-09T14:27:41.601Z,101197.13
2022-10-09T14:30:11.077Z,101186.63
2022-10-09T14:32:37.398Z,101177.75
2022-10-09T14:35:03.945Z,101199.19
2022-10-09T14:37:41.141Z,101112.19
2022-10-09T14:40:08.979Z,101099.97
2022-10-09T14:42:38.672Z,101181.91
2022-10-09T14:45:06.376Z,101176.06
2022-10-09T14:47:32.742Z,101138.34
2022-10-09T14:49:59.060Z,101173.22
2022-10-09T14:52:25.401Z,101081.97
2022-10-09T14:54:51.756Z,101189.78
2022-10-09T14:57:18.122Z,101036.66
2022-10-09T14:59:44.514Z,101043.16
2022-10-09T15:02:20.213Z,101165.94
2022-10-09T15:04:46.807Z,101164.22
2022-10-09T15:07:13.180Z,101167.47
2022-10-09T15:09:39.550Z,101062.69
2022-10-09T15:12:05.978Z,101109.00
2022-10-09T15:14:32.384Z,101112.59
2022-10-09T15:16:58.723Z,101135.88
2022-10-09T15:19:25.138Z,101094.50
2022-10-09T15:21:51.455Z,101111.91
2022-10-09T15:24:17.941Z,101038.19
2022-10-09T15:26:44.252Z,101076.81
2022-10-09T15:29:12.009Z,101134.31
2022-10-09T15:31:40.509Z,101130.78
2022-10-09T15:34:08.256Z,100993.91
2022-10-09T15:36:37.344Z,101126.06
2022-10-09T15:39:07.123Z,101120.53
2022-10-09T15:41:36.444Z,101081.63
2022-10-09T15:44:07.004Z,101099.13
2022-10-09T15:46:34.196Z,101123.75
2022-10-09T15:49:00.590Z,101063.75
2022-10-09T15:51:28.303Z,101058.34
2022-10-09T15:53:56.051Z,101073.34
2022-10-09T15:56:24.265Z,101084.94
2022-10-09T15:58:51.745Z,101075.25
2022-10-09T16:01:19.648Z,101091.34
2022-10-09T16:03:46.762Z,101073.84
2022-10-09T16:06:18.060Z,101083.09
2022-10-09T16:08:44.677Z,101076.22
2022-10-09T16:11:13.139Z,101072.28
2022-10-09T16:16:09.507Z,101045.75
2022-10-09T16:18:36.458Z,101040.59
2022-10-09T16:21:19.030Z,101012.13
2022-10-09T16:23:45.856Z,101069.75
2022-10-09T16:26:14.947Z,101031.28
2022-10-09T16:28:41.482Z,100961.78
2022-10-09T16:31:08.008Z,101021.34
2022-10-09T16:33:34.715Z,101052.47
2022-10-09T16:36:09.155Z,101065.69
2022-10-09T16:38:35.396Z,101068.66
2022-10-09T16:41:02.685Z,101057.00
2022-10-09T16:43:32.431Z,100919.19
2022-10-09T16:46:09.181Z,100973.28
2022-10-09T16:48:35.556Z,101013.34
2022-10-09T16:51:01.881Z,101035.03
2022-10-09T16:53:28.490Z,101035.66
2022-10-09T16:55:54.850Z,100963.81
2022-10-09T16:58:21.267Z,101046.91
2022-10-09T17:00:47.628Z,100983.13
2022-10-09T17:03:13.982Z,101036.06
2022-10-09T17:05:40.493Z,101043.16
2022-10-09T17:08:06.915Z,101047.97
2022-10-09T17:10:33.288Z,100906.97
2022-10-09T17:12:59.639Z,100917.34
2022-10-09T17:15:25.940Z,100979.75
2022-10-09T17:17:52.854Z,100930.44
2022-10-09T17:20:19.485Z,101044.03
2022-10-09T17:22:45.860Z,101048.56
2022-10-09T17:25:13.619Z,100921.00
2022-10-09T17:27:40.010Z,101050.63
2022-10-09T17:30:07.135Z,101038.22
2022-10-09T17:32:33.561Z,101018.06
2022-10-09T17:34:59.922Z,101073.34
2022-10-09T17:37:26.299Z,100994.31
2022-10-09T17:39:52.724Z,100975.72
2022-10-09T17:42:19.117Z,100902.41
2022-10-09T17:44:45.474Z,101028.13
2022-10-09T17:47:11.811Z,101041.03
2022-10-09T17:49:38.293Z,100954.34
2022-10-09T17:52:04.635Z,101029.50
2022-10-09T17:54:31.098Z,101035.41
2022-10-09T17:57:00.136Z,101010.84
2022-10-09T17:59:27.095Z,100981.00
2022-10-09T18:01:53.730Z,101016.69
2022-10-09T18:04:20.157Z,101036.63
2022-10-09T18:06:46.472Z,101041.97
2022-10-09T18:09:12.822Z,101019.13
2022-10-09T18:11:39.226Z,101039.75
2022-10-09T18:14:05.679Z,101028.50
2022-10-09T18:16:36.790Z,101037.69
2022-10-09T18:19:14.513Z,101021.78
2022-10-09T18:21:44.199Z,100943.81
2022-10-09T18:24:11.633Z,100990.25
2022-10-09T18:26:38.438Z,101038.78
2022-10-09T18:29:05.097Z,101039.66
2022-10-09T18:31:32.329Z,101032.78
2022-10-09T18:34:00.161Z,101025.41
2022-10-09T18:36:31.603Z,100971.94
2022-10-09T18:39:07.179Z,100816.94
2022-10-09T18:41:33.894Z,101012.91
2022-10-09T18:44:00.923Z,101027.25
2022-10-09T18:46:33.351Z,100982.78
2022-10-09T18:49:00.055Z,101019.13
2022-10-09T18:51:28.363Z,100940.56
2022-10-09T18:53:59.854Z,100935.34
2022-10-09T18:56:29.254Z,100993.78
2022-10-09T18:58:55.655Z,101009.44
2022-10-09T19:01:22.620Z,101015.97
2022-10-09T19:03:50.246Z,101011.56
2022-10-09T19:06:21.640Z,101002.97
2022-10-09T19:08:48.089Z,100998.59
2022-10-09T19:11:14.792Z,100893.66
2022-10-09T19:13:42.790Z,101020.00
2022-10-09T19:16:09.780Z,100967.38
2022-10-09T19:18:36.925Z,101025.00
2022-10-09T19:21:03.660Z,100973.88
2022-10-09T19:23:30.251Z,100902.63
2022-10-09T19:25:58.515Z,100969.97
2022-10-09T19:28:26.958Z,101012.38
2022-10-09T19:30:53.358Z,100913.31
2022-10-09T19:33:19.696Z,100987.66
2022-10-09T19:35:55.058Z,100911.34
2022-10-09T19:38:22.969Z,100886.22
2022-10-09T19:40:49.965Z,100860.25
2022-10-09T19:43:17.625Z,100999.47
2022-10-09T19:45:44.803Z,100980.81
2022-10-09T19:48:11.272Z,100944.75
2022-10-09T19:50:42.475Z,100969.84
2022-10-09T19:53:09.328Z,100973.25
2022-10-09T19:55:36.321Z,100880.47
2022-10-09T19:58:03.589Z,100946.72
2022-10-09T20:00:30.913Z,100891.34
2022-10-09T20:02:57.307Z,100787.56
2022-10-09T20:05:23.781Z,100979.22
2022-10-09T20:07:50.293Z,100898.47
2022-10-09T20:10:16.874Z,100908.56
2022-10-09T20:12:43.481Z,100827.19
2022-10-09T20:15:10.120Z,100854.22
2022-10-09T20:17:36.565Z,100963.66
2022-10-09T20:20:04.971Z,100974.94
2022-10-09T20:22:31.591Z,100965.75
2022-10-09T20:24:58.004Z,100926.03
2022-10-09T20:27:24.527Z,100945.38
2022-10-09T20:29:52.704Z,100880.22
2022-10-09T20:32:19.062Z,100929.06
2022-10-09T20:34:45.376Z,100925.22
2022-10-09T20:37:11.920Z,100936.63
2022-10-09T20:39:38.397Z,100929.97
2022-10-09T20:42:04.813Z,100857.34
2022-10-09T20:44:31.142Z,100940.41
2022-10-09T20:46:57.526Z,100928.97
2022-10-09T20:49:23.976Z,100897.75
2022-10-09T20:51:51.121Z,100909.19
2022-10-09T20:54:19.885Z,100952.56
2022-10-09T20:56:46.661Z,100914.94
2022-10-09T20:59:13.626Z,100931.47
2022-10-09T21:01:40.170Z,100831.50
2022-10-09T21:04:06.564Z,100939.19
2022-10-09T21:06:34.064Z,100928.50
2022-10-09T21:09:00.388Z,100879.31
2022-10-09T21:11:26.808Z,100935.88
2022-10-09T21:13:53.844Z,100954.59
2022-10-09T21:16:22.786Z,100937.38
2022-10-09T21:18:59.860Z,100888.16
2022-10-09T21:21:28.206Z,100938.22
2022-10-09T21:23:57.780Z,100929.25
2022-10-09T21:26:25.540Z,100915.16
2022-10-09T21:28:56.746Z,100931.78
2022-10-09T21:31:28.220Z,100925.22
2022-10-09T21:33:55.267Z,100916.41
2022-10-09T21:36:34.289Z,100942.09
2022-10-09T21:39:00.872Z,100935.09
2022-10-09T21:41:27.510Z,100908.66
2022-10-09T21:43:53.873Z,100828.28
2022-10-09T21:46:20.303Z,100828.22
2022-10-09T21:48:46.725Z,100905.44
2022-10-09T21:51:13.190Z,100879.63
2022-10-09T21:53:39.770Z,100901.25
2022-10-09T21:56:07.168Z,100924.50
2022-10-09T21:58:33.513Z,100897.13
2022-10-09T22:01:01.594Z,100921.34
2022-10-09T22:03:30.657Z,100904.41
2022-10-09T22:05:57.155Z,100902.63
2022-10-09T22:08:24.770Z,100765.34
2022-10-09T22:10:51.774Z,100882.91
2022-10-09T22:13:20.208Z,100893.97
2022-10-09T22:15:50.929Z,100874.16
2022-10-09T22:18:17.956Z,100874.28
2022-10-09T22:20:49.567Z,100819.66
2022-10-09T22:23:17.446Z,100866.94
2022-10-09T22:25:43.852Z,100791.84
2022-10-09T22:28:10.411Z,100832.22
2022-10-09T22:30:36.854Z,100773.03
2022-10-09T22:33:03.236Z,100874.66
2022-10-09T22:35:29.817Z,100864.31
2022-10-09T22:37:57.246Z,100885.19
2022-10-09T22:40:23.696Z,100881.81
2022-10-09T22:42:50.338Z,100886.72
2022-10-09T22:45:16.991Z,100801.41
2022-10-09T22:47:43.318Z,100777.63
2022-10-09T22:50:09.874Z,100760.50
2022-10-09T22:52:36.245Z,100864.81
2022-10-09T22:55:03.379Z,100873.63
2022-10-09T22:57:29.685Z,100777.19
2022-10-09T22:59:56.061Z,100780.25
2022-10-09T23:02:22.382Z,100771.47
2022-10-09T23:04:48.726Z,100855.06
2022-10-09T23:07:15.210Z,100865.38
2022-10-09T23:09:41.567Z,100777.00
2022-10-09T23:12:08.200Z,100855.88
2022-10-09T23:14:34.712Z,100836.09
2022-10-09T23:17:01.023Z,100746.44
2022-10-09T23:19:27.451Z,100816.03
2022-10-09T23:21:53.785Z,100851.72
2022-10-09T23:24:20.193Z,100803.78
2022-10-09T23:26:50.546Z,100854.59
2022-10-09T23:29:18.506Z,100820.50
2022-10-09T23:31:45.557Z,100857.66
2022-10-09T23:34:12.932Z,100855.22
2022-10-09T23:36:39.520Z,100850.06
2022-10-09T23:39:06.827Z,100747.59
2022-10-09T23:41:33.636Z,100801.75
2022-10-09T23:43:59.983Z,100844.63
2022-10-09T23:46:29.093Z,100746.59
2022-10-09T23:48:56.417Z,100738.72
2022-10-09T23:51:24.668Z,100820.41
2022-10-09T23:53:51.572Z,100814.38
2022-10-09T23:56:24.413Z,100848.38
2022-10-09T23:58:51.597Z,100781.00
